Time;durP1;ratioP1;P1;durP2;ratioP2;P2;SDS_P1;SDS_P2;PMS_P1;PMS_P2;Temp;Humidity;BMP_temperature;BMP_pressure;BME280_temperature;BME280_humidity;BME280_pressure;Samples;Min_cycle;Max_cycle;Signal;HPM_P1;HPM_P2
2022/04/24 00:02:17;;;;;;;10.63;7.13;;;9.50;99.90;;;;;;5053449;28;20165;-65
2022/04/24 00:04:43;;;;;;;13.70;8.40;;;9.60;99.90;;;;;;5053500;28;20242;-66
2022/04/24 00:07:09;;;;;;;11.77;7.57;;;9.60;99.90;;;;;;5053840;28;20172;-64
2022/04/24 00:09:37;;;;;;;10.57;7.83;;;9.50;99.90;;;;;;5054495;28;20168;-65
2022/04/24 00:12:04;;;;;;;10.80;7.90;;;9.50;99.90;;;;;;5053599;28;20543;-66
2022/04/24 00:14:30;;;;;;;11.47;8.33;;;9.50;99.90;;;;;;5054838;28;20171;-67
2022/04/24 00:16:55;;;;;;;12.67;6.87;;;9.50;99.90;;;;;;5065994;28;20544;-65
2022/04/24 00:19:21;;;;;;;9.53;7.43;;;9.50;99.90;;;;;;5060172;28;20161;-65
2022/04/24 00:21:47;;;;;;;11.60;7.17;;;9.50;99.90;;;;;;5055678;28;20516;-65
2022/04/24 00:24:13;;;;;;;9.13;6.90;;;9.50;99.90;;;;;;5054590;28;20165;-67
2022/04/24 00:26:39;;;;;;;11.77;7.57;;;9.60;99.90;;;;;;5058550;28;20160;-65
2022/04/24 00:29:05;;;;;;;13.60;7.70;;;9.50;99.90;;;;;;5058696;28;20171;-65
2022/04/24 00:31:30;;;;;;;11.17;6.97;;;9.40;99.90;;;;;;5057655;28;20205;-66
2022/04/24 00:33:56;;;;;;;9.47;6.70;;;9.30;99.90;;;;;;5056962;28;20513;-65
2022/04/24 00:36:22;;;;;;;9.57;6.80;;;9.20;99.90;;;;;;5056974;28;20179;-65
2022/04/24 00:38:47;;;;;;;11.43;7.37;;;9.20;99.90;;;;;;5056806;28;20172;-67
2022/04/24 00:41:13;;;;;;;9.40;6.73;;;9.10;99.90;;;;;;5056684;28;20164;-66
2022/04/24 00:43:38;;;;;;;8.37;6.33;;;9.10;99.90;;;;;;5056892;28;20222;-66
2022/04/24 00:46:18;;;;;;;8.73;7.30;;;9.00;99.90;;;;;;5056232;28;20216;-65
2022/04/24 00:48:44;;;;;;;10.87;7.20;;;9.00;99.90;;;;;;5023137;28;20200;-65
2022/04/24 00:51:11;;;;;;;8.47;6.73;;;8.90;99.90;;;;;;5056607;28;20261;-67
2022/04/24 00:53:37;;;;;;;10.77;7.87;;;8.80;99.90;;;;;;5056660;28;20642;-67
2022/04/24 00:56:05;;;;;;;10.87;7.73;;;8.70;99.90;;;;;;5056654;28;20165;-65
2022/04/24 00:58:32;;;;;;;11.37;7.63;;;8.70;99.90;;;;;;5057108;28;20199;-65
2022/04/24 01:00:59;;;;;;;11.50;7.57;;;8.70;99.90;;;;;;5057196;28;20552;-66
2022/04/24 01:03:25;;;;;;;10.83;7.97;;;8.70;99.90;;;;;;5058775;28;20230;-65
2022/04/24 01:05:51;;;;;;;10.70;7.77;;;8.50;99.90;;;;;;5059534;28;20589;-65
2022/04/24 01:08:16;;;;;;;9.70;7.43;;;8.40;99.90;;;;;;5041211;28;20190;-66
2022/04/24 01:10:42;;;;;;;10.13;7.53;;;8.40;99.90;;;;;;5058070;28;20242;-66
2022/04/24 01:13:07;;;;;;;9.57;7.23;;;8.40;99.90;;;;;;5056493;28;20251;-66
2022/04/24 01:15:33;;;;;;;10.73;7.60;;;8.30;99.90;;;;;;5056301;28;20172;-66
2022/04/24 01:18:00;;;;;;;13.50;7.27;;;8.30;99.90;;;;;;5057224;28;20171;-65
2022/04/24 01:20:26;;;;;;;12.17;8.27;;;8.20;99.90;;;;;;5055991;28;20597;-65
2022/04/24 01:22:52;;;;;;;9.67;7.27;;;8.00;99.90;;;;;;5056567;28;20172;-67
2022/04/24 01:25:18;;;;;;;9.03;7.10;;;8.10;99.90;;;;;;5060162;28;20183;-65
2022/04/24 01:27:44;;;;;;;10.23;6.80;;;8.00;99.90;;;;;;5061060;28;20252;-66
2022/04/24 01:30:10;;;;;;;9.87;7.33;;;8.10;99.90;;;;;;5058168;28;20182;-66
2022/04/24 01:32:38;;;;;;;12.23;7.90;;;8.00;99.90;;;;;;5041083;28;20190;-67
2022/04/24 01:35:05;;;;;;;10.60;7.73;;;8.10;99.90;;;;;;5055709;28;20169;-67
2022/04/24 01:37:30;;;;;;;12.00;7.87;;;8.10;99.90;;;;;;5054646;28;20188;-66
2022/04/24 01:39:56;;;;;;;11.43;7.53;;;8.00;99.90;;;;;;5038151;28;20280;-65
2022/04/24 01:42:23;;;;;;;9.50;7.17;;;8.00;99.90;;;;;;5055431;28;20191;-65
2022/04/24 01:44:48;;;;;;;9.23;7.10;;;8.00;99.90;;;;;;5054924;28;20165;-66
2022/04/24 01:47:14;;;;;;;11.57;7.47;;;7.90;99.90;;;;;;5055038;28;20246;-66
2022/04/24 01:49:40;;;;;;;12.60;7.73;;;7.80;99.90;;;;;;5055437;28;20164;-65
2022/04/24 01:52:06;;;;;;;13.57;8.47;;;7.90;99.90;;;;;;5055414;28;20261;-66
2022/04/24 01:54:32;;;;;;;11.00;6.97;;;7.80;99.90;;;;;;5055184;28;20175;-65
2022/04/24 01:56:58;;;;;;;12.73;8.03;;;7.80;99.90;;;;;;5055363;28;20169;-67
2022/04/24 01:59:23;;;;;;;12.07;8.73;;;7.80;99.90;;;;;;5055337;28;20624;-65
2022/04/24 02:01:49;;;;;;;12.20;7.77;;;7.80;99.90;;;;;;5055031;28;20165;-66
2022/04/24 02:04:16;;;;;;;13.40;8.13;;;7.80;99.90;;;;;;5055348;28;20174;-66
2022/04/24 02:06:42;;;;;;;11.63;8.33;;;7.90;99.90;;;;;;5055156;28;20266;-66
2022/04/24 02:09:08;;;;;;;11.13;7.97;;;8.00;99.90;;;;;;5037702;28;20174;-65
2022/04/24 02:11:34;;;;;;;14.57;8.73;;;7.80;99.90;;;;;;5055221;28;20511;-65
2022/04/24 02:13:59;;;;;;;13.73;8.60;;;7.80;99.90;;;;;;5037549;28;20225;-65
2022/04/24 02:16:25;;;;;;;11.37;7.57;;;7.80;99.90;;;;;;5054731;28;20173;-66
2022/04/24 02:18:51;;;;;;;11.47;7.53;;;7.60;99.90;;;;;;5054521;28;20491;-67
2022/04/24 02:21:16;;;;;;;13.73;7.83;;;7.50;99.90;;;;;;5054581;28;20178;-65
2022/04/24 02:23:42;;;;;;;10.57;7.80;;;7.40;99.90;;;;;;5037690;28;20165;-66
2022/04/24 02:26:08;;;;;;;13.17;7.77;;;7.40;99.90;;;;;;5037016;28;20171;-66
2022/04/24 02:28:33;;;;;;;9.67;7.37;;;7.40;99.90;;;;;;5054684;28;20167;-67
2022/04/24 02:30:59;;;;;;;8.40;6.70;;;7.20;99.90;;;;;;5054768;28;20253;-66
2022/04/24 02:33:24;;;;;;;11.90;8.50;;;7.10;99.90;;;;;;5054763;28;20183;-66
2022/04/24 02:35:50;;;;;;;12.07;8.03;;;7.20;99.90;;;;;;5054569;28;20169;-65
2022/04/24 02:38:16;;;;;;;10.80;6.87;;;7.20;99.90;;;;;;5054944;28;20161;-65
2022/04/24 02:40:41;;;;;;;12.97;7.30;;;7.20;99.90;;;;;;5055403;28;20169;-66
2022/04/24 02:43:07;;;;;;;11.97;7.33;;;7.00;99.90;;;;;;5054637;28;20159;-65
2022/04/24 02:45:33;;;;;;;15.93;9.83;;;6.90;99.90;;;;;;5054257;28;20234;-66
2022/04/24 02:47:58;;;;;;;13.07;8.03;;;7.00;99.90;;;;;;5054002;28;20202;-65
2022/04/24 02:50:24;;;;;;;14.13;9.40;;;6.90;99.90;;;;;;5054215;28;20228;-65
2022/04/24 02:52:52;;;;;;;18.00;9.77;;;7.00;99.90;;;;;;5054188;28;20160;-65
2022/04/24 02:55:19;;;;;;;10.67;7.83;;;7.00;99.90;;;;;;5054459;28;20169;-66
2022/04/24 02:57:46;;;;;;;12.53;8.53;;;7.10;99.90;;;;;;5054854;28;20220;-67
2022/04/24 03:00:14;;;;;;;14.20;7.77;;;7.10;99.90;;;;;;5054060;28;20191;-66
2022/04/24 03:02:43;;;;;;;12.73;7.40;;;7.00;99.90;;;;;;5054636;28;20508;-65
2022/04/24 03:05:14;;;;;;;13.93;8.10;;;7.00;99.90;;;;;;5054128;28;20591;-67
2022/04/24 03:07:40;;;;;;;15.37;9.23;;;7.00;99.90;;;;;;5055066;28;20308;-65
2022/04/24 03:10:08;;;;;;;14.03;9.87;;;7.00;99.90;;;;;;5058481;28;20183;-66
2022/04/24 03:12:35;;;;;;;12.07;7.77;;;7.00;99.90;;;;;;5065102;28;20238;-66
2022/04/24 03:15:00;;;;;;;14.27;9.27;;;7.00;99.90;;;;;;5056422;28;20164;-65
2022/04/24 03:17:26;;;;;;;14.47;9.83;;;6.90;99.90;;;;;;5053977;28;20175;-65
2022/04/24 03:19:52;;;;;;;11.13;8.93;;;7.00;99.90;;;;;;5054362;28;20560;-67
2022/04/24 03:22:18;;;;;;;12.27;9.17;;;6.90;99.90;;;;;;5054619;28;20256;-66
2022/04/24 03:24:44;;;;;;;12.90;8.73;;;6.90;99.90;;;;;;5055551;28;20569;-66
2022/04/24 03:27:10;;;;;;;10.73;7.60;;;6.80;99.90;;;;;;5056137;28;20540;-64
2022/04/24 03:29:35;;;;;;;12.00;7.23;;;6.80;99.90;;;;;;5037170;28;20209;-66
2022/04/24 03:32:01;;;;;;;13.53;9.23;;;6.80;99.90;;;;;;5056166;28;20218;-67
2022/04/24 03:34:27;;;;;;;12.97;8.17;;;6.70;99.90;;;;;;5058557;28;20247;-66
2022/04/24 03:36:52;;;;;;;14.83;7.60;;;6.70;99.90;;;;;;5059775;28;20183;-65
2022/04/24 03:39:18;;;;;;;10.47;7.27;;;6.60;99.90;;;;;;5059671;28;20172;-66
2022/04/24 03:41:43;;;;;;;12.83;9.20;;;6.60;99.90;;;;;;5059202;28;20618;-65
2022/04/24 03:44:09;;;;;;;14.47;8.80;;;6.40;99.90;;;;;;5053998;28;20170;-65
2022/04/24 03:46:35;;;;;;;10.30;7.00;;;6.60;99.90;;;;;;5053781;28;20226;-65
2022/04/24 03:49:00;;;;;;;10.70;7.97;;;6.60;99.90;;;;;;5053503;28;20166;-66
2022/04/24 03:51:26;;;;;;;12.57;9.40;;;6.50;99.90;;;;;;5053426;28;20248;-65
2022/04/24 03:53:51;;;;;;;14.50;8.87;;;6.60;99.90;;;;;;5053390;28;20173;-66
2022/04/24 03:56:17;;;;;;;12.83;9.67;;;6.50;99.90;;;;;;5053905;28;20482;-66
2022/04/24 03:58:42;;;;;;;9.53;7.37;;;6.40;99.90;;;;;;5053522;28;20229;-65
2022/04/24 04:01:08;;;;;;;11.33;7.30;;;6.40;99.90;;;;;;5055889;28;20402;-65
2022/04/24 04:03:34;;;;;;;9.93;7.07;;;6.50;99.90;;;;;;5057905;28;20179;-67
2022/04/24 04:05:59;;;;;;;13.33;9.07;;;6.40;99.90;;;;;;5058683;28;20174;-66
2022/04/24 04:08:25;;;;;;;13.73;9.10;;;6.50;99.90;;;;;;5057248;28;20169;-64
2022/04/24 04:10:50;;;;;;;13.13;9.13;;;6.50;99.90;;;;;;5057242;28;20211;-65
2022/04/24 04:13:16;;;;;;;13.23;9.63;;;6.40;99.90;;;;;;5059018;28;20173;-66
2022/04/24 04:15:41;;;;;;;11.77;9.07;;;6.40;99.90;;;;;;5058570;28;20590;-65
2022/04/24 04:18:07;;;;;;;12.77;9.27;;;6.20;99.90;;;;;;5059962;28;20169;-67
2022/04/24 04:20:33;;;;;;;12.97;8.80;;;6.30;99.90;;;;;;5058933;28;20169;-65
2022/04/24 04:22:58;;;;;;;12.47;8.93;;;6.40;99.90;;;;;;5057160;28;20183;-65
2022/04/24 04:25:25;;;;;;;12.80;9.67;;;6.30;99.90;;;;;;5057075;28;20671;-65
2022/04/24 04:27:54;;;;;;;14.30;9.17;;;6.30;99.90;;;;;;5056797;28;20167;-66
2022/04/24 04:30:20;;;;;;;12.43;9.07;;;6.50;99.90;;;;;;5056490;28;20251;-65
2022/04/24 04:32:46;;;;;;;13.53;9.00;;;6.60;99.90;;;;;;5056397;28;20160;-65
2022/04/24 04:35:12;;;;;;;14.17;9.23;;;6.60;99.90;;;;;;5056576;28;20303;-66
2022/04/24 04:37:39;;;;;;;13.47;7.80;;;6.60;99.90;;;;;;5057459;28;20188;-65
2022/04/24 04:40:06;;;;;;;11.20;8.47;;;6.60;99.90;;;;;;5039582;28;20180;-64
2022/04/24 04:42:32;;;;;;;14.13;9.43;;;6.60;99.90;;;;;;5039297;28;20174;-64
2022/04/24 04:45:00;;;;;;;10.90;7.23;;;6.80;99.90;;;;;;5056793;28;20301;-66
2022/04/24 04:47:27;;;;;;;12.90;9.63;;;6.80;99.90;;;;;;5056460;28;20181;-65
2022/04/24 04:49:53;;;;;;;13.40;9.37;;;6.90;99.90;;;;;;5039302;28;20201;-65
2022/04/24 04:52:19;;;;;;;12.47;7.80;;;7.00;99.90;;;;;;5055789;28;20210;-65
2022/04/24 04:54:45;;;;;;;11.20;7.57;;;7.00;99.90;;;;;;5056165;28;20243;-67
2022/04/24 04:57:10;;;;;;;10.20;7.90;;;6.90;99.90;;;;;;5056728;28;20169;-65
2022/04/24 04:59:36;;;;;;;11.23;8.27;;;7.20;99.90;;;;;;5056111;28;20243;-65
2022/04/24 05:02:02;;;;;;;13.53;10.10;;;7.30;99.90;;;;;;5056081;28;20576;-65
2022/04/24 05:04:27;;;;;;;12.03;8.00;;;7.30;99.90;;;;;;5056330;28;20213;-68
2022/04/24 05:06:53;;;;;;;12.27;8.83;;;7.30;99.90;;;;;;5056049;28;20174;-65
2022/04/24 05:09:19;;;;;;;12.37;8.03;;;7.40;99.90;;;;;;5055695;28;20298;-66
2022/04/24 05:11:44;;;;;;;10.63;7.37;;;7.50;99.90;;;;;;5055446;28;20233;-65
2022/04/24 05:14:10;;;;;;;11.97;8.30;;;7.60;99.90;;;;;;5055851;28;20576;-67
2022/04/24 05:16:35;;;;;;;10.63;8.57;;;7.60;99.90;;;;;;5037928;28;20545;-66
2022/04/24 05:19:02;;;;;;;14.23;7.50;;;7.70;99.90;;;;;;5055959;28;20197;-66
2022/04/24 05:21:28;;;;;;;14.20;8.97;;;7.60;99.90;;;;;;5056235;28;20253;-66
2022/04/24 05:23:54;;;;;;;14.50;8.30;;;7.70;99.90;;;;;;5055816;28;20633;-67
2022/04/24 05:26:20;;;;;;;10.17;7.73;;;7.80;99.90;;;;;;5056410;28;20175;-67
2022/04/24 05:28:45;;;;;;;14.10;9.00;;;7.90;99.90;;;;;;5039749;28;20175;-66
2022/04/24 05:31:11;;;;;;;9.37;6.97;;;8.00;99.90;;;;;;5056645;28;20231;-67
2022/04/24 05:33:37;;;;;;;11.87;7.60;;;7.90;99.90;;;;;;5055920;28;20162;-67
2022/04/24 05:36:05;;;;;;;11.33;7.00;;;7.90;99.90;;;;;;5038635;28;20338;-64
2022/04/24 05:38:30;;;;;;;12.87;7.93;;;8.00;99.90;;;;;;5056593;28;20175;-64
2022/04/24 05:40:56;;;;;;;13.37;8.40;;;8.10;99.90;;;;;;5057628;28;20167;-66
2022/04/24 05:43:22;;;;;;;10.87;7.40;;;8.40;99.90;;;;;;5060173;28;20232;-67
2022/04/24 05:45:47;;;;;;;12.53;7.50;;;8.50;99.90;;;;;;5061141;28;20302;-65
2022/04/24 05:48:13;;;;;;;10.93;8.00;;;8.70;99.90;;;;;;5060172;28;20159;-66
2022/04/24 05:50:39;;;;;;;10.90;8.27;;;8.80;99.90;;;;;;5042651;28;20649;-66
2022/04/24 05:53:04;;;;;;;11.43;8.33;;;9.00;99.90;;;;;;5059317;28;20607;-66
2022/04/24 05:55:30;;;;;;;11.93;8.37;;;9.00;99.90;;;;;;5038805;28;20209;-65
2022/04/24 05:57:55;;;;;;;12.33;8.20;;;9.00;99.90;;;;;;5059007;28;20168;-65
2022/04/24 06:00:22;;;;;;;11.53;7.60;;;9.00;99.90;;;;;;5059908;28;20167;-67
2022/04/24 06:02:47;;;;;;;14.43;8.07;;;9.00;99.90;;;;;;5059161;28;20165;-66
2022/04/24 06:05:13;;;;;;;12.40;8.73;;;9.20;99.90;;;;;;5058681;28;20464;-66
2022/04/24 06:07:40;;;;;;;15.00;9.20;;;9.10;99.90;;;;;;5059573;28;20168;-66
2022/04/24 06:10:07;;;;;;;15.07;9.07;;;9.30;99.90;;;;;;5055598;28;20179;-68
2022/04/24 06:12:52;;;;;;;14.73;9.63;;;9.30;99.90;;;;;;5055008;28;20208;-66
2022/04/24 06:15:21;;;;;;;14.57;9.47;;;9.50;99.90;;;;;;5054792;28;20597;-66
2022/04/24 06:17:49;;;;;;;13.03;8.63;;;9.50;99.90;;;;;;5054962;28;20214;-66
2022/04/24 06:20:16;;;;;;;12.00;8.87;;;9.50;99.90;;;;;;5056039;28;20183;-66
2022/04/24 06:22:42;;;;;;;12.50;8.33;;;9.60;99.90;;;;;;5038287;28;20219;-66
2022/04/24 06:25:08;;;;;;;13.60;9.30;;;9.40;99.90;;;;;;5039060;28;20596;-66
2022/04/24 06:27:34;;;;;;;12.40;8.60;;;9.40;99.90;;;;;;5056191;28;20170;-66
2022/04/24 06:30:01;;;;;;;11.77;9.03;;;9.50;99.90;;;;;;5056047;28;20160;-65
2022/04/24 06:32:30;;;;;;;13.30;8.83;;;9.60;99.90;;;;;;5055277;28;20218;-67
2022/04/24 06:34:55;;;;;;;12.23;9.23;;;9.60;99.90;;;;;;5055462;28;20238;-66
2022/04/24 06:37:21;;;;;;;14.40;9.40;;;9.70;99.90;;;;;;5037145;28;20188;-68
2022/04/24 06:39:47;;;;;;;17.03;8.77;;;9.70;99.90;;;;;;5054954;28;20175;-66
2022/04/24 06:42:12;;;;;;;12.23;9.30;;;9.80;99.90;;;;;;5056098;28;20192;-66
2022/04/24 06:44:38;;;;;;;15.10;8.30;;;9.90;99.90;;;;;;5056253;28;20167;-66
2022/04/24 06:47:03;;;;;;;13.37;9.27;;;9.90;99.90;;;;;;5056060;28;20168;-66
2022/04/24 06:49:29;;;;;;;12.53;9.07;;;9.90;99.90;;;;;;5055419;28;20201;-66
2022/04/24 06:51:55;;;;;;;14.07;9.23;;;9.70;99.90;;;;;;5055070;28;20207;-66
2022/04/24 06:54:20;;;;;;;13.47;9.43;;;9.70;99.90;;;;;;5057394;28;20692;-65
2022/04/24 06:56:46;;;;;;;14.70;9.43;;;9.80;99.90;;;;;;5056450;28;20176;-67
2022/04/24 06:59:11;;;;;;;15.53;10.30;;;9.90;99.90;;;;;;5054433;28;20589;-66
2022/04/24 07:01:37;;;;;;;12.80;9.00;;;10.10;99.90;;;;;;5035928;28;20268;-66
2022/04/24 07:04:03;;;;;;;11.73;8.43;;;10.20;99.90;;;;;;5054259;28;20179;-66
2022/04/24 07:06:28;;;;;;;17.00;9.63;;;10.40;99.90;;;;;;5053593;28;20317;-66
2022/04/24 07:08:54;;;;;;;13.57;8.80;;;10.60;99.90;;;;;;5054311;28;20168;-67
2022/04/24 07:11:22;;;;;;;15.43;10.17;;;10.70;99.90;;;;;;5053627;28;20211;-67
2022/04/24 07:13:47;;;;;;;13.20;9.47;;;10.90;99.90;;;;;;5053573;28;20152;-66
2022/04/24 07:16:13;;;;;;;11.40;8.37;;;10.80;99.90;;;;;;5053375;28;20178;-66
2022/04/24 07:18:38;;;;;;;16.50;8.73;;;10.90;99.90;;;;;;5053601;28;20184;-66
2022/04/24 07:21:06;;;;;;;11.83;8.73;;;10.90;99.90;;;;;;5053544;28;20172;-65
2022/04/24 07:23:31;;;;;;;11.40;8.90;;;11.10;99.90;;;;;;5053952;28;20163;-66
2022/04/24 07:25:58;;;;;;;11.57;9.00;;;11.20;99.90;;;;;;5053891;28;20164;-67
2022/04/24 07:28:24;;;;;;;14.87;9.33;;;11.30;99.90;;;;;;5053890;28;20196;-66
2022/04/24 07:30:50;;;;;;;15.70;9.93;;;11.50;99.90;;;;;;5053827;28;20596;-68
2022/04/24 07:33:16;;;;;;;12.70;9.60;;;11.70;99.90;;;;;;5054681;28;20178;-64
2022/04/24 07:35:42;;;;;;;16.93;10.53;;;11.90;99.90;;;;;;5055050;28;20247;-67
2022/04/24 07:38:08;;;;;;;11.40;8.30;;;12.00;99.90;;;;;;5042371;28;20607;-68
2022/04/24 07:40:36;;;;;;;12.63;8.77;;;12.30;99.90;;;;;;5059917;28;20167;-66
2022/04/24 07:43:04;;;;;;;12.07;8.07;;;12.60;99.90;;;;;;5041995;28;20634;-67
2022/04/24 07:45:31;;;;;;;12.80;8.47;;;12.70;99.90;;;;;;5061106;28;20231;-65
2022/04/24 07:47:57;;;;;;;11.57;8.40;;;12.80;99.90;;;;;;5041443;28;20187;-66
2022/04/24 07:50:25;;;;;;;12.07;9.00;;;12.90;99.90;;;;;;5040805;28;20179;-68
2022/04/24 07:52:51;;;;;;;10.90;8.60;;;12.90;99.90;;;;;;5058669;28;20175;-66
2022/04/24 07:55:19;;;;;;;13.13;8.90;;;12.90;99.90;;;;;;5058476;28;20168;-65
2022/04/24 07:57:46;;;;;;;12.70;8.63;;;13.10;99.90;;;;;;5063391;28;20239;-66
2022/04/24 08:00:13;;;;;;;16.03;9.90;;;13.30;99.90;;;;;;5065905;28;20236;-67
2022/04/24 08:02:57;;;;;;;12.87;9.47;;;13.30;99.90;;;;;;5062062;28;20168;-66
2022/04/24 08:05:28;;;;;;;14.93;9.10;;;13.40;99.90;;;;;;5057464;28;20156;-66
2022/04/24 08:07:55;;;;;;;13.90;9.07;;;13.40;99.90;;;;;;5057084;28;20627;-66
2022/04/24 08:10:22;;;;;;;13.17;10.23;;;13.30;99.90;;;;;;5057224;28;20210;-66
2022/04/24 08:12:48;;;;;;;15.10;10.67;;;13.30;99.90;;;;;;5039647;28;20184;-67
2022/04/24 08:15:14;;;;;;;18.73;12.27;;;13.20;99.90;;;;;;5057412;28;20584;-65
2022/04/24 08:17:40;;;;;;;13.93;9.80;;;13.40;99.90;;;;;;5060056;28;20271;-65
2022/04/24 08:20:07;;;;;;;16.73;10.70;;;13.50;99.90;;;;;;5057077;28;20601;-67
2022/04/24 08:22:44;;;;;;;13.80;11.07;;;13.60;99.90;;;;;;5056833;28;20192;-66
2022/04/24 08:25:12;;;;;;;13.83;9.93;;;13.80;99.90;;;;;;5056855;28;20168;-65
2022/04/24 08:27:38;;;;;;;14.50;10.40;;;13.80;99.90;;;;;;5057627;28;20644;-67
2022/04/24 08:30:05;;;;;;;15.50;10.10;;;13.90;99.90;;;;;;5057319;28;20171;-68
2022/04/24 08:32:31;;;;;;;14.87;10.00;;;14.00;99.90;;;;;;5038951;28;20648;-66
2022/04/24 08:34:57;;;;;;;15.60;10.03;;;14.10;99.90;;;;;;5057522;28;20163;-68
2022/04/24 08:37:26;;;;;;;14.13;9.73;;;14.20;99.90;;;;;;5040364;28;20631;-65
2022/04/24 08:39:53;;;;;;;13.77;9.27;;;14.40;99.90;;;;;;5057520;28;20164;-66
2022/04/24 08:42:21;;;;;;;13.03;9.10;;;14.30;99.90;;;;;;5057040;28;20172;-66
2022/04/24 08:44:49;;;;;;;13.67;9.20;;;14.30;99.90;;;;;;5056611;28;20160;-65
2022/04/24 08:47:15;;;;;;;12.63;8.70;;;14.30;99.90;;;;;;5056200;28;20177;-66
2022/04/24 08:49:42;;;;;;;11.17;8.27;;;14.30;99.90;;;;;;5056732;28;20573;-66
2022/04/24 08:52:09;;;;;;;11.10;7.83;;;14.30;99.90;;;;;;5056866;28;20227;-67
2022/04/24 08:54:37;;;;;;;13.60;8.00;;;14.40;99.80;;;;;;5056807;28;20666;-65
2022/04/24 08:57:03;;;;;;;10.10;7.30;;;14.40;98.80;;;;;;5039595;28;20180;-65
2022/04/24 08:59:29;;;;;;;11.40;7.70;;;14.50;98.90;;;;;;5057024;28;20330;-68
2022/04/24 09:01:58;;;;;;;8.87;7.23;;;14.60;99.20;;;;;;5058043;28;20171;-66
2022/04/24 09:04:26;;;;;;;10.33;6.83;;;14.60;99.10;;;;;;5065453;28;20678;-67
2022/04/24 09:06:56;;;;;;;11.60;7.10;;;14.70;98.10;;;;;;5064479;28;20171;-68
2022/04/24 09:09:22;;;;;;;10.37;6.70;;;14.70;95.80;;;;;;5056101;28;20161;-68
2022/04/24 09:11:48;;;;;;;8.77;6.17;;;14.80;94.30;;;;;;5057438;28;20295;-66
2022/04/24 09:14:20;;;;;;;9.17;6.70;;;14.90;93.70;;;;;;5056144;28;20226;-66
2022/04/24 09:16:48;;;;;;;7.87;6.03;;;15.00;92.70;;;;;;5055974;28;20267;-68
2022/04/24 09:19:23;;;;;;;7.57;5.60;;;14.90;90.90;;;;;;5055438;28;20247;-68
2022/04/24 09:21:50;;;;;;;7.07;4.80;;;15.00;89.40;;;;;;5056138;28;20548;-68
2022/04/24 09:24:16;;;;;;;7.37;5.50;;;15.00;88.50;;;;;;5055345;28;20169;-66
2022/04/24 09:26:56;;;;;;;9.27;5.27;;;15.00;87.40;;;;;;5055635;28;20219;-67
2022/04/24 09:29:22;;;;;;;8.30;5.17;;;15.00;87.10;;;;;;5055681;28;20168;-67
2022/04/24 09:31:49;;;;;;;8.43;5.53;;;14.90;87.10;;;;;;5055264;28;20207;-68
2022/04/24 09:34:17;;;;;;;9.83;6.03;;;14.90;88.10;;;;;;5055627;28;20160;-65
2022/04/24 09:36:43;;;;;;;9.20;5.57;;;14.90;87.90;;;;;;5055873;28;20180;-66
2022/04/24 09:39:09;;;;;;;7.90;6.63;;;14.80;87.10;;;;;;5055507;28;20173;-66
2022/04/24 09:41:36;;;;;;;7.40;5.80;;;14.70;88.20;;;;;;5056898;28;20153;-66
2022/04/24 09:44:15;;;;;;;7.77;5.87;;;14.70;89.20;;;;;;5038026;28;20179;-66
2022/04/24 09:46:41;;;;;;;8.43;5.77;;;14.60;89.60;;;;;;5069564;28;20517;-65
2022/04/24 09:49:10;;;;;;;11.07;8.03;;;14.60;90.00;;;;;;5074935;28;20171;-66
2022/04/24 09:51:42;;;;;;;11.70;7.93;;;14.50;90.40;;;;;;5075279;28;20305;-66
2022/04/24 09:54:09;;;;;;;12.97;7.97;;;14.50;91.10;;;;;;5074954;28;20251;-66
2022/04/24 09:56:35;;;;;;;11.53;7.10;;;14.50;91.50;;;;;;5075481;28;20167;-66
2022/04/24 09:59:01;;;;;;;10.20;7.27;;;14.50;91.20;;;;;;5073450;28;20607;-66
2022/04/24 10:01:27;;;;;;;8.30;6.70;;;14.40;91.20;;;;;;5079851;28;20172;-67
2022/04/24 10:03:55;;;;;;;8.57;6.57;;;14.40;91.60;;;;;;5080766;28;20164;-67
2022/04/24 10:06:22;;;;;;;8.63;6.77;;;14.30;92.10;;;;;;5082116;28;20152;-66
2022/04/24 10:08:50;;;;;;;8.67;6.77;;;14.30;92.80;;;;;;5082948;28;20181;-65
2022/04/24 10:11:16;;;;;;;11.87;7.33;;;14.30;93.10;;;;;;5074705;28;20195;-67
2022/04/24 10:13:46;;;;;;;9.07;7.10;;;14.20;92.90;;;;;;5074452;28;20516;-66
2022/04/24 10:16:25;;;;;;;11.40;6.90;;;14.20;93.30;;;;;;5071727;28;20191;-65
2022/04/24 10:19:29;;;;;;;9.10;7.07;;;14.20;94.00;;;;;;5074677;28;20167;-66
2022/04/24 10:22:03;;;;;;;9.83;6.87;;;14.20;93.90;;;;;;5075511;28;20164;-67
2022/04/24 10:24:38;;;;;;;10.63;7.43;;;14.10;94.50;;;;;;5074551;28;20196;-67
2022/04/24 10:27:05;;;;;;;9.13;6.87;;;14.10;94.80;;;;;;5073804;28;20510;-65
2022/04/24 10:29:31;;;;;;;9.87;7.10;;;14.00;95.40;;;;;;5074607;28;20184;-65
2022/04/24 10:31:56;;;;;;;9.93;7.23;;;13.90;96.20;;;;;;5074339;28;20241;-67
2022/04/24 10:34:23;;;;;;;10.73;7.37;;;13.80;96.40;;;;;;5074204;28;20171;-67
2022/04/24 10:37:01;;;;;;;9.63;7.23;;;13.70;96.80;;;;;;5074538;28;20211;-65
2022/04/24 10:39:28;;;;;;;9.47;6.83;;;13.70;97.50;;;;;;5074644;28;20603;-66
2022/04/24 10:41:57;;;;;;;12.07;6.07;;;13.60;98.00;;;;;;5074950;28;20163;-66
2022/04/24 10:44:23;;;;;;;8.57;5.80;;;13.50;96.90;;;;;;5074317;28;20623;-65
2022/04/24 10:46:49;;;;;;;8.47;5.87;;;13.40;96.60;;;;;;5073016;28;20313;-66
2022/04/24 10:49:17;;;;;;;9.97;6.30;;;13.30;97.40;;;;;;5075178;28;20179;-66
2022/04/24 10:51:45;;;;;;;7.57;6.30;;;13.30;98.10;;;;;;5075219;28;20199;-66
2022/04/24 10:54:17;;;;;;;8.73;6.13;;;13.20;98.90;;;;;;5076002;28;20593;-66
2022/04/24 10:56:51;;;;;;;8.70;5.80;;;13.30;99.70;;;;;;5088569;28;20231;-66
2022/04/24 10:59:22;;;;;;;7.77;5.90;;;13.20;99.90;;;;;;5087457;28;20157;-67
2022/04/24 11:01:50;;;;;;;8.33;5.77;;;13.20;99.90;;;;;;5087292;28;20167;-67
2022/04/24 11:04:17;;;;;;;7.00;5.60;;;13.20;99.90;;;;;;5081415;28;20614;-67
2022/04/24 11:07:02;;;;;;;9.20;5.80;;;13.00;99.90;;;;;;5083328;28;20183;-68
2022/04/24 11:09:33;;;;;;;7.57;5.73;;;12.90;99.90;;;;;;5084202;28;20213;-65
2022/04/24 11:12:03;;;;;;;8.33;6.23;;;12.70;99.90;;;;;;5074878;28;20321;-66
2022/04/24 11:14:30;;;;;;;8.13;6.10;;;12.80;99.90;;;;;;5074928;28;20186;-65
2022/04/24 11:17:00;;;;;;;7.83;6.30;;;12.60;99.90;;;;;;5074706;28;20207;-64
2022/04/24 11:19:37;;;;;;;6.57;5.27;;;12.50;99.90;;;;;;5074367;28;20160;-66
2022/04/24 11:22:08;;;;;;;7.30;5.40;;;12.30;99.90;;;;;;5073961;28;20191;-66
2022/04/24 11:24:36;;;;;;;7.40;5.77;;;12.20;99.90;;;;;;5073393;28;20217;-66
2022/04/24 11:27:07;;;;;;;7.27;5.87;;;12.10;99.90;;;;;;5074683;28;20591;-66
2022/04/24 11:29:33;;;;;;;9.40;6.10;;;12.00;99.90;;;;;;5073865;28;20586;-65
2022/04/24 11:32:00;;;;;;;7.10;5.80;;;12.00;99.90;;;;;;5074823;28;20260;-66
2022/04/24 11:34:26;;;;;;;6.33;5.70;;;12.00;99.90;;;;;;5074044;28;20158;-66
2022/04/24 11:36:56;;;;;;;7.40;6.30;;;11.90;99.90;;;;;;5074712;28;20653;-66
2022/04/24 11:39:22;;;;;;;8.43;6.20;;;11.90;99.90;;;;;;5074583;28;20175;-65
2022/04/24 11:41:51;;;;;;;8.50;5.67;;;11.90;99.90;;;;;;5074202;28;20159;-65
2022/04/24 11:52:48;;;;;;;10.73;6.90;;;11.90;99.90;;;;;;5074580;28;20225;-66
2022/04/24 11:55:21;;;;;;;8.87;6.73;;;11.90;99.90;;;;;;5077021;28;20156;-65
2022/04/24 11:57:58;;;;;;;10.03;6.77;;;12.00;99.90;;;;;;5086382;28;20181;-64
2022/04/24 12:00:38;;;;;;;9.47;6.83;;;12.00;99.90;;;;;;5078626;28;20289;-65
2022/04/24 12:03:06;;;;;;;10.77;7.93;;;12.00;99.90;;;;;;5074052;28;20174;-64
2022/04/24 12:05:33;;;;;;;10.83;7.73;;;12.00;99.90;;;;;;5075219;28;20152;-64
2022/04/24 12:07:59;;;;;;;10.77;7.50;;;11.90;99.90;;;;;;5084777;28;20163;-65
2022/04/24 12:10:26;;;;;;;11.43;7.47;;;12.00;99.90;;;;;;5082204;28;20160;-65
2022/04/24 12:12:53;;;;;;;9.63;7.73;;;12.00;99.90;;;;;;5081314;28;20188;-66
2022/04/24 12:15:21;;;;;;;11.20;7.43;;;12.00;99.90;;;;;;5077872;28;20163;-65
2022/04/24 12:17:49;;;;;;;12.23;8.27;;;12.10;99.90;;;;;;5074367;28;20170;-65
2022/04/24 12:20:14;;;;;;;10.80;8.07;;;12.10;99.90;;;;;;5073352;28;20154;-65
2022/04/24 12:22:40;;;;;;;10.03;7.57;;;12.10;99.90;;;;;;5076947;28;20168;-65
2022/04/24 12:25:15;;;;;;;11.53;7.77;;;12.10;99.90;;;;;;5077774;28;20584;-65
2022/04/24 12:27:52;;;;;;;9.90;7.00;;;12.10;99.90;;;;;;5078438;28;20179;-64
2022/04/24 12:30:18;;;;;;;11.23;8.33;;;12.10;99.90;;;;;;5079316;28;20163;-65
2022/04/24 12:32:43;;;;;;;9.57;7.93;;;12.30;99.90;;;;;;5077009;28;20200;-65
2022/04/24 12:35:25;;;;;;;11.53;7.83;;;12.20;99.90;;;;;;5077330;28;20591;-66
2022/04/24 12:37:51;;;;;;;12.90;8.17;;;12.30;99.90;;;;;;5077193;28;20265;-66
2022/04/24 12:40:16;;;;;;;12.03;8.57;;;12.30;99.90;;;;;;5076889;28;20241;-65
2022/04/24 12:42:51;;;;;;;10.57;7.23;;;12.20;99.90;;;;;;5077227;28;20164;-65
2022/04/24 12:45:17;;;;;;;11.17;7.63;;;12.20;99.90;;;;;;5070047;28;20753;-64
2022/04/24 12:47:42;;;;;;;10.17;8.60;;;12.30;99.90;;;;;;5056274;28;20175;-66
2022/04/24 12:50:09;;;;;;;9.13;7.47;;;12.30;99.90;;;;;;5056132;28;20171;-66
2022/04/24 12:52:35;;;;;;;11.73;8.13;;;12.30;99.90;;;;;;5056940;28;20594;-65
2022/04/24 12:55:01;;;;;;;10.50;7.67;;;12.30;99.90;;;;;;5056457;28;20247;-64